sensor_id;sensor_type;location;lat;lon;timestamp;pressure;altitude;pressure_sealevel;temperature;humidity
51067;BME280;37112;45.892;-123.962;2023-08-06T00:01:51;102051.25;;;20.14;81.93
51067;BME280;37112;45.892;-123.962;2023-08-06T00:04:05;102055.66;;;20.04;81.33
51067;BME280;37112;45.892;-123.962;2023-08-06T00:06:18;102057.78;;;20.03;81.79
51067;BME280;37112;45.892;-123.962;2023-08-06T00:08:31;102053.55;;;20.02;81.62
51067;BME280;37112;45.892;-123.962;2023-08-06T00:10:46;102051.08;;;19.99;81.61
51067;BME280;37112;45.892;-123.962;2023-08-06T00:13:00;102052.67;;;19.97;81.65
51067;BME280;37112;45.892;-123.962;2023-08-06T00:15:13;102047.50;;;19.98;81.57
51067;BME280;37112;45.892;-123.962;2023-08-06T00:17:27;102046.25;;;19.98;81.62
51067;BME280;37112;45.892;-123.962;2023-08-06T00:19:41;102047.50;;;20.01;81.99
51067;BME280;37112;45.892;-123.962;2023-08-06T00:21:54;102054.66;;;20.02;81.95
51067;BME280;37112;45.892;-123.962;2023-08-06T00:24:08;102057.40;;;19.99;81.64
51067;BME280;37112;45.892;-123.962;2023-08-06T00:26:21;102055.32;;;19.96;81.66
51067;BME280;37112;45.892;-123.962;2023-08-06T00:28:38;102057.10;;;19.94;81.79
51067;BME280;37112;45.892;-123.962;2023-08-06T00:30:54;102055.94;;;19.91;81.50
51067;BME280;37112;45.892;-123.962;2023-08-06T00:33:08;102052.02;;;19.86;81.50
51067;BME280;37112;45.892;-123.962;2023-08-06T00:35:21;102052.12;;;19.85;81.77
51067;BME280;37112;45.892;-123.962;2023-08-06T00:37:35;102055.29;;;19.84;81.83
51067;BME280;37112;45.892;-123.962;2023-08-06T00:39:48;102051.04;;;19.83;81.94
51067;BME280;37112;45.892;-123.962;2023-08-06T00:42:01;102048.67;;;19.81;81.91
51067;BME280;37112;45.892;-123.962;2023-08-06T00:44:14;102047.88;;;19.78;81.86
51067;BME280;37112;45.892;-123.962;2023-08-06T00:46:28;102043.73;;;19.75;82.00
51067;BME280;37112;45.892;-123.962;2023-08-06T00:48:43;102048.02;;;19.74;81.97
51067;BME280;37112;45.892;-123.962;2023-08-06T00:50:56;102056.54;;;19.71;81.89
51067;BME280;37112;45.892;-123.962;2023-08-06T00:53:10;102051.14;;;19.69;82.01
51067;BME280;37112;45.892;-123.962;2023-08-06T00:55:24;102052.36;;;19.65;82.01
51067;BME280;37112;45.892;-123.962;2023-08-06T00:57:38;102054.92;;;19.65;82.30
51067;BME280;37112;45.892;-123.962;2023-08-06T00:59:51;102051.78;;;19.64;82.30
51067;BME280;37112;45.892;-123.962;2023-08-06T01:02:04;102044.16;;;19.62;82.26
51067;BME280;37112;45.892;-123.962;2023-08-06T01:04:18;102036.54;;;19.63;82.44
51067;BME280;37112;45.892;-123.962;2023-08-06T01:06:38;102030.84;;;19.64;82.59
51067;BME280;37112;45.892;-123.962;2023-08-06T01:08:58;102023.16;;;19.63;82.41
51067;BME280;37112;45.892;-123.962;2023-08-06T01:11:21;102018.64;;;19.63;82.72
51067;BME280;37112;45.892;-123.962;2023-08-06T01:13:45;102023.89;;;19.67;83.05
51067;BME280;37112;45.892;-123.962;2023-08-06T01:16:01;102020.74;;;19.68;82.79
51067;BME280;37112;45.892;-123.962;2023-08-06T01:18:14;102013.52;;;19.64;82.22
51067;BME280;37112;45.892;-123.962;2023-08-06T01:20:32;102013.56;;;19.57;82.03
51067;BME280;37112;45.892;-123.962;2023-08-06T01:22:45;102020.54;;;19.53;82.38
51067;BME280;37112;45.892;-123.962;2023-08-06T01:24:57;102027.55;;;19.54;82.61
51067;BME280;37112;45.892;-123.962;2023-08-06T01:27:14;102031.71;;;19.45;81.79
51067;BME280;37112;45.892;-123.962;2023-08-06T01:29:33;102033.27;;;19.37;81.75
51067;BME280;37112;45.892;-123.962;2023-08-06T01:31:48;102036.84;;;19.25;81.15
51067;BME280;37112;45.892;-123.962;2023-08-06T01:34:03;102037.05;;;19.15;81.17
51067;BME280;37112;45.892;-123.962;2023-08-06T01:36:18;102037.04;;;19.05;81.00
51067;BME280;37112;45.892;-123.962;2023-08-06T01:38:33;102036.42;;;18.99;81.38
51067;BME280;37112;45.892;-123.962;2023-08-06T01:40:46;102038.02;;;18.95;81.48
51067;BME280;37112;45.892;-123.962;2023-08-06T01:43:02;102037.84;;;18.93;81.80
51067;BME280;37112;45.892;-123.962;2023-08-06T01:45:15;102032.24;;;18.93;82.36
51067;BME280;37112;45.892;-123.962;2023-08-06T01:47:30;102028.69;;;18.97;82.83
51067;BME280;37112;45.892;-123.962;2023-08-06T01:49:44;102027.27;;;19.01;83.35
51067;BME280;37112;45.892;-123.962;2023-08-06T01:52:00;102023.63;;;19.06;83.35
51067;BME280;37112;45.892;-123.962;2023-08-06T01:54:14;102018.11;;;19.09;83.63
51067;BME280;37112;45.892;-123.962;2023-08-06T01:56:27;102018.61;;;19.12;83.61
51067;BME280;37112;45.892;-123.962;2023-08-06T01:58:41;102020.90;;;19.15;83.57
51067;BME280;37112;45.892;-123.962;2023-08-06T02:00:54;102019.39;;;19.18;83.75
51067;BME280;37112;45.892;-123.962;2023-08-06T02:03:07;102018.62;;;19.18;83.79
51067;BME280;37112;45.892;-123.962;2023-08-06T02:05:21;102015.83;;;19.19;83.92
51067;BME280;37112;45.892;-123.962;2023-08-06T02:07:35;102019.32;;;19.23;84.07
51067;BME280;37112;45.892;-123.962;2023-08-06T02:09:49;102018.03;;;19.26;84.17
51067;BME280;37112;45.892;-123.962;2023-08-06T02:12:03;102014.71;;;19.27;84.16
51067;BME280;37112;45.892;-123.962;2023-08-06T02:14:15;102011.72;;;19.26;84.18
51067;BME280;37112;45.892;-123.962;2023-08-06T02:16:29;102016.38;;;19.24;84.09
51067;BME280;37112;45.892;-123.962;2023-08-06T02:18:41;102012.70;;;19.18;83.37
51067;BME280;37112;45.892;-123.962;2023-08-06T02:21:03;102013.65;;;19.13;83.44
51067;BME280;37112;45.892;-123.962;2023-08-06T02:23:17;102017.85;;;19.13;83.66
51067;BME280;37112;45.892;-123.962;2023-08-06T02:25:30;102020.81;;;19.14;83.77
51067;BME280;37112;45.892;-123.962;2023-08-06T02:27:42;102022.48;;;19.13;83.94
51067;BME280;37112;45.892;-123.962;2023-08-06T02:29:56;102020.94;;;19.12;83.96
51067;BME280;37112;45.892;-123.962;2023-08-06T02:32:09;102021.10;;;19.12;84.07
51067;BME280;37112;45.892;-123.962;2023-08-06T02:34:23;102020.00;;;19.12;84.25
51067;BME280;37112;45.892;-123.962;2023-08-06T02:36:37;102023.13;;;19.12;84.34
51067;BME280;37112;45.892;-123.962;2023-08-06T02:38:51;102021.38;;;19.11;84.23
51067;BME280;37112;45.892;-123.962;2023-08-06T02:41:06;102024.36;;;19.10;84.11
51067;BME280;37112;45.892;-123.962;2023-08-06T02:43:19;102030.91;;;19.09;84.24
51067;BME280;37112;45.892;-123.962;2023-08-06T02:45:34;102030.07;;;19.09;84.42
51067;BME280;37112;45.892;-123.962;2023-08-06T02:47:49;102036.84;;;19.10;84.55
51067;BME280;37112;45.892;-123.962;2023-08-06T02:50:02;102039.27;;;19.11;84.61
51067;BME280;37112;45.892;-123.962;2023-08-06T02:52:16;102040.06;;;19.12;84.78
51067;BME280;37112;45.892;-123.962;2023-08-06T02:54:31;102041.46;;;19.12;84.61
51067;BME280;37112;45.892;-123.962;2023-08-06T02:56:48;102043.20;;;19.09;84.14
51067;BME280;37112;45.892;-123.962;2023-08-06T02:59:10;102047.73;;;18.97;83.53
51067;BME280;37112;45.892;-123.962;2023-08-06T03:01:33;102050.68;;;18.88;83.47
51067;BME280;37112;45.892;-123.962;2023-08-06T03:03:55;102051.50;;;18.76;83.28
51067;BME280;37112;45.892;-123.962;2023-08-06T03:06:20;102058.94;;;18.65;83.47
51067;BME280;37112;45.892;-123.962;2023-08-06T03:08:36;102058.34;;;18.59;83.64
51067;BME280;37112;45.892;-123.962;2023-08-06T03:10:51;102059.25;;;18.57;83.92
51067;BME280;37112;45.892;-123.962;2023-08-06T03:13:04;102060.02;;;18.59;84.30
51067;BME280;37112;45.892;-123.962;2023-08-06T03:15:17;102060.34;;;18.61;84.56
51067;BME280;37112;45.892;-123.962;2023-08-06T03:17:32;102056.66;;;18.65;84.57
51067;BME280;37112;45.892;-123.962;2023-08-06T03:19:46;102056.60;;;18.68;84.81
51067;BME280;37112;45.892;-123.962;2023-08-06T03:22:00;102056.73;;;18.71;84.71
51067;BME280;37112;45.892;-123.962;2023-08-06T03:24:15;102060.24;;;18.74;85.03
51067;BME280;37112;45.892;-123.962;2023-08-06T03:26:31;102060.51;;;18.78;85.15
51067;BME280;37112;45.892;-123.962;2023-08-06T03:28:45;102059.22;;;18.80;85.16
51067;BME280;37112;45.892;-123.962;2023-08-06T03:31:04;102061.55;;;18.80;85.10
51067;BME280;37112;45.892;-123.962;2023-08-06T03:33:22;102059.55;;;18.79;84.99
51067;BME280;37112;45.892;-123.962;2023-08-06T03:35:37;102060.64;;;18.76;85.04
51067;BME280;37112;45.892;-123.962;2023-08-06T03:37:52;102059.24;;;18.73;84.80
51067;BME280;37112;45.892;-123.962;2023-08-06T03:40:07;102064.27;;;18.69;84.86
51067;BME280;37112;45.892;-123.962;2023-08-06T03:42:21;102064.88;;;18.66;85.18
51067;BME280;37112;45.892;-123.962;2023-08-06T03:44:35;102068.36;;;18.62;85.29
51067;BME280;37112;45.892;-123.962;2023-08-06T03:46:50;102065.98;;;18.61;85.47
51067;BME280;37112;45.892;-123.962;2023-08-06T03:49:04;102068.21;;;18.60;85.74
51067;BME280;37112;45.892;-123.962;2023-08-06T03:51:19;102063.44;;;18.59;85.96
51067;BME280;37112;45.892;-123.962;2023-08-06T03:53:35;102065.84;;;18.58;85.82
51067;BME280;37112;45.892;-123.962;2023-08-06T03:55:50;102071.10;;;18.55;86.03
51067;BME280;37112;45.892;-123.962;2023-08-06T03:58:05;102076.59;;;18.56;86.20
51067;BME280;37112;45.892;-123.962;2023-08-06T04:00:21;102081.13;;;18.55;86.19
51067;BME280;37112;45.892;-123.962;2023-08-06T04:02:35;102079.68;;;18.56;86.33
51067;BME280;37112;45.892;-123.962;2023-08-06T04:04:49;102076.05;;;18.56;86.51
51067;BME280;37112;45.892;-123.962;2023-08-06T04:07:06;102076.25;;;18.56;86.53
51067;BME280;37112;45.892;-123.962;2023-08-06T04:09:21;102073.45;;;18.55;86.45
51067;BME280;37112;45.892;-123.962;2023-08-06T04:11:34;102072.48;;;18.54;86.40
51067;BME280;37112;45.892;-123.962;2023-08-06T04:13:49;102075.23;;;18.53;86.41
51067;BME280;37112;45.892;-123.962;2023-08-06T04:16:05;102076.89;;;18.52;86.69
51067;BME280;37112;45.892;-123.962;2023-08-06T04:18:20;102076.36;;;18.53;86.92
51067;BME280;37112;45.892;-123.962;2023-08-06T04:20:35;102081.29;;;18.54;86.91
51067;BME280;37112;45.892;-123.962;2023-08-06T04:22:56;102082.73;;;18.54;86.98
51067;BME280;37112;45.892;-123.962;2023-08-06T04:25:10;102084.80;;;18.53;86.89
51067;BME280;37112;45.892;-123.962;2023-08-06T04:27:23;102088.79;;;18.52;87.08
51067;BME280;37112;45.892;-123.962;2023-08-06T04:29:36;102093.29;;;18.52;87.05
51067;BME280;37112;45.892;-123.962;2023-08-06T04:31:50;102104.23;;;18.53;87.06
51067;BME280;37112;45.892;-123.962;2023-08-06T04:34:04;102100.31;;;18.52;87.07
51067;BME280;37112;45.892;-123.962;2023-08-06T04:36:19;102100.83;;;18.52;87.18
51067;BME280;37112;45.892;-123.962;2023-08-06T04:38:32;102096.92;;;18.52;87.01
51067;BME280;37112;45.892;-123.962;2023-08-06T04:40:45;102096.59;;;18.51;87.07
51067;BME280;37112;45.892;-123.962;2023-08-06T04:42:59;102097.48;;;18.51;87.15
51067;BME280;37112;45.892;-123.962;2023-08-06T04:45:14;102092.30;;;18.49;87.26
51067;BME280;37112;45.892;-123.962;2023-08-06T04:47:28;102093.59;;;18.49;87.33
51067;BME280;37112;45.892;-123.962;2023-08-06T04:49:41;102097.52;;;18.49;87.49
51067;BME280;37112;45.892;-123.962;2023-08-06T04:51:54;102100.33;;;18.47;87.57
51067;BME280;37112;45.892;-123.962;2023-08-06T04:54:08;102098.66;;;18.46;87.50
51067;BME280;37112;45.892;-123.962;2023-08-06T04:56:21;102097.69;;;18.44;87.62
51067;BME280;37112;45.892;-123.962;2023-08-06T04:58:34;102098.27;;;18.43;87.70
51067;BME280;37112;45.892;-123.962;2023-08-06T05:00:49;102097.30;;;18.42;87.84
51067;BME280;37112;45.892;-123.962;2023-08-06T05:03:03;102100.09;;;18.41;88.00
51067;BME280;37112;45.892;-123.962;2023-08-06T05:05:17;102098.61;;;18.39;88.16
51067;BME280;37112;45.892;-123.962;2023-08-06T05:07:31;102101.84;;;18.37;88.22
51067;BME280;37112;45.892;-123.962;2023-08-06T05:09:44;102104.55;;;18.35;88.14
51067;BME280;37112;45.892;-123.962;2023-08-06T05:11:57;102105.70;;;18.32;88.09
51067;BME280;37112;45.892;-123.962;2023-08-06T05:14:11;102107.58;;;18.31;88.58
51067;BME280;37112;45.892;-123.962;2023-08-06T05:16:24;102108.21;;;18.29;88.61
51067;BME280;37112;45.892;-123.962;2023-08-06T05:18:38;102109.03;;;18.28;88.58
51067;BME280;37112;45.892;-123.962;2023-08-06T05:20:52;102113.02;;;18.28;88.74
51067;BME280;37112;45.892;-123.962;2023-08-06T05:23:05;102121.33;;;18.27;88.85
51067;BME280;37112;45.892;-123.962;2023-08-06T05:25:18;102123.45;;;18.27;89.10
51067;BME280;37112;45.892;-123.962;2023-08-06T05:27:31;102123.12;;;18.30;89.15
51067;BME280;37112;45.892;-123.962;2023-08-06T05:29:44;102127.41;;;18.32;89.24
51067;BME280;37112;45.892;-123.962;2023-08-06T05:32:00;102123.19;;;18.33;89.25
51067;BME280;37112;45.892;-123.962;2023-08-06T05:34:14;102127.27;;;18.34;89.33
51067;BME280;37112;45.892;-123.962;2023-08-06T05:36:28;102128.80;;;18.35;89.27
51067;BME280;37112;45.892;-123.962;2023-08-06T05:38:41;102129.56;;;18.34;89.32
51067;BME280;37112;45.892;-123.962;2023-08-06T05:40:54;102131.58;;;18.32;89.08
51067;BME280;37112;45.892;-123.962;2023-08-06T05:43:08;102129.77;;;18.30;89.20
51067;BME280;37112;45.892;-123.962;2023-08-06T05:45:21;102136.02;;;18.30;89.27
51067;BME280;37112;45.892;-123.962;2023-08-06T05:47:35;102137.54;;;18.29;89.63
51067;BME280;37112;45.892;-123.962;2023-08-06T05:49:49;102137.81;;;18.28;89.48
51067;BME280;37112;45.892;-123.962;2023-08-06T05:52:06;102135.14;;;18.25;89.49
51067;BME280;37112;45.892;-123.962;2023-08-06T05:54:19;102131.54;;;18.23;89.66
51067;BME280;37112;45.892;-123.962;2023-08-06T05:56:32;102134.96;;;18.23;89.74
51067;BME280;37112;45.892;-123.962;2023-08-06T05:58:46;102132.92;;;18.22;90.02
51067;BME280;37112;45.892;-123.962;2023-08-06T06:01:01;102133.31;;;18.21;89.99
51067;BME280;37112;45.892;-123.962;2023-08-06T06:03:14;102135.27;;;18.19;90.20
51067;BME280;37112;45.892;-123.962;2023-08-06T06:05:28;102134.38;;;18.17;90.16
51067;BME280;37112;45.892;-123.962;2023-08-06T06:07:42;102129.94;;;18.14;90.23
51067;BME280;37112;45.892;-123.962;2023-08-06T06:09:54;102130.42;;;18.12;90.35
51067;BME280;37112;45.892;-123.962;2023-08-06T06:12:09;102134.40;;;18.09;90.52
51067;BME280;37112;45.892;-123.962;2023-08-06T06:14:22;102135.11;;;18.07;90.53
51067;BME280;37112;45.892;-123.962;2023-08-06T06:16:36;102127.55;;;18.05;90.63
51067;BME280;37112;45.892;-123.962;2023-08-06T06:18:49;102124.45;;;18.03;90.88
51067;BME280;37112;45.892;-123.962;2023-08-06T06:21:03;102126.58;;;18.01;90.87
51067;BME280;37112;45.892;-123.962;2023-08-06T06:23:16;102128.98;;;17.98;90.86
51067;BME280;37112;45.892;-123.962;2023-08-06T06:25:29;102130.35;;;17.96;91.10
51067;BME280;37112;45.892;-123.962;2023-08-06T06:27:46;102130.94;;;17.96;91.18
51067;BME280;37112;45.892;-123.962;2023-08-06T06:29:59;102130.39;;;17.94;91.21
51067;BME280;37112;45.892;-123.962;2023-08-06T06:32:13;102131.70;;;17.93;91.54
51067;BME280;37112;45.892;-123.962;2023-08-06T06:34:26;102134.20;;;17.93;91.76
51067;BME280;37112;45.892;-123.962;2023-08-06T06:36:39;102131.83;;;17.94;91.68
51067;BME280;37112;45.892;-123.962;2023-08-06T06:38:53;102131.51;;;17.93;91.55
51067;BME280;37112;45.892;-123.962;2023-08-06T06:41:06;102134.31;;;17.92;91.64
51067;BME280;37112;45.892;-123.962;2023-08-06T06:43:19;102135.48;;;17.93;92.01
51067;BME280;37112;45.892;-123.962;2023-08-06T06:45:33;102141.48;;;17.94;91.89
51067;BME280;37112;45.892;-123.962;2023-08-06T06:47:46;102141.73;;;17.96;91.89
51067;BME280;37112;45.892;-123.962;2023-08-06T06:49:59;102139.27;;;17.95;91.73
51067;BME280;37112;45.892;-123.962;2023-08-06T06:52:14;102133.71;;;17.95;91.82
51067;BME280;37112;45.892;-123.962;2023-08-06T06:54:27;102135.03;;;17.96;92.05
51067;BME280;37112;45.892;-123.962;2023-08-06T06:56:41;102134.83;;;17.96;91.94
51067;BME280;37112;45.892;-123.962;2023-08-06T06:58:54;102133.08;;;17.96;92.02
51067;BME280;37112;45.892;-123.962;2023-08-06T07:01:09;102134.27;;;17.97;92.02
51067;BME280;37112;45.892;-123.962;2023-08-06T07:03:23;102133.39;;;17.96;92.23
51067;BME280;37112;45.892;-123.962;2023-08-06T07:05:36;102133.90;;;17.97;92.12
51067;BME280;37112;45.892;-123.962;2023-08-06T07:07:51;102134.02;;;17.98;92.27
51067;BME280;37112;45.892;-123.962;2023-08-06T07:10:06;102134.16;;;17.98;92.27
51067;BME280;37112;45.892;-123.962;2023-08-06T07:12:19;102136.69;;;17.98;92.21
51067;BME280;37112;45.892;-123.962;2023-08-06T07:14:33;102137.27;;;18.00;92.41
51067;BME280;37112;45.892;-123.962;2023-08-06T07:16:47;102133.73;;;18.01;92.35
51067;BME280;37112;45.892;-123.962;2023-08-06T07:19:00;102136.16;;;18.05;92.67
51067;BME280;37112;45.892;-123.962;2023-08-06T07:21:14;102135.66;;;18.07;92.78
51067;BME280;37112;45.892;-123.962;2023-08-06T07:23:28;102132.92;;;18.09;92.78
51067;BME280;37112;45.892;-123.962;2023-08-06T07:25:41;102134.05;;;18.12;92.75
51067;BME280;37112;45.892;-123.962;2023-08-06T07:27:55;102135.80;;;18.15;93.06
51067;BME280;37112;45.892;-123.962;2023-08-06T07:30:10;102135.70;;;18.18;93.25
51067;BME280;37112;45.892;-123.962;2023-08-06T07:32:23;102134.45;;;18.20;93.18
51067;BME280;37112;45.892;-123.962;2023-08-06T07:34:37;102137.30;;;18.21;92.89
51067;BME280;37112;45.892;-123.962;2023-08-06T07:36:50;102140.72;;;18.21;92.77
51067;BME280;37112;45.892;-123.962;2023-08-06T07:39:04;102139.63;;;18.21;92.62
51067;BME280;37112;45.892;-123.962;2023-08-06T07:41:17;102144.07;;;18.22;92.75
51067;BME280;37112;45.892;-123.962;2023-08-06T07:43:31;102140.78;;;18.23;92.62
51067;BME280;37112;45.892;-123.962;2023-08-06T07:45:44;102142.90;;;18.20;92.54
51067;BME280;37112;45.892;-123.962;2023-08-06T07:47:58;102142.07;;;18.19;92.48
51067;BME280;37112;45.892;-123.962;2023-08-06T07:50:11;102140.92;;;18.18;92.51
51067;BME280;37112;45.892;-123.962;2023-08-06T07:52:25;102143.82;;;18.16;92.30
51067;BME280;37112;45.892;-123.962;2023-08-06T07:54:40;102143.20;;;18.14;92.37
51067;BME280;37112;45.892;-123.962;2023-08-06T07:56:53;102140.71;;;18.14;92.60
51067;BME280;37112;45.892;-123.962;2023-08-06T07:59:06;102147.17;;;18.14;92.75
51067;BME280;37112;45.892;-123.962;2023-08-06T08:01:20;102149.31;;;18.15;92.60
51067;BME280;37112;45.892;-123.962;2023-08-06T08:03:33;102151.41;;;18.15;92.76
51067;BME280;37112;45.892;-123.962;2023-08-06T08:05:48;102151.34;;;18.16;92.79
51067;BME280;37112;45.892;-123.962;2023-08-06T08:08:03;102151.58;;;18.17;93.03
51067;BME280;37112;45.892;-123.962;2023-08-06T08:10:25;102151.84;;;18.17;92.95
51067;BME280;37112;45.892;-123.962;2023-08-06T08:12:38;102148.99;;;18.14;92.48
51067;BME280;37112;45.892;-123.962;2023-08-06T08:14:55;102148.61;;;18.11;92.57
51067;BME280;37112;45.892;-123.962;2023-08-06T08:17:10;102146.05;;;18.10;92.51
51067;BME280;37112;45.892;-123.962;2023-08-06T08:19:23;102150.48;;;18.10;92.61
51067;BME280;37112;45.892;-123.962;2023-08-06T08:21:37;102149.98;;;18.13;92.74
51067;BME280;37112;45.892;-123.962;2023-08-06T08:23:51;102148.38;;;18.12;92.55
51067;BME280;37112;45.892;-123.962;2023-08-06T08:26:08;102145.07;;;18.13;92.59
51067;BME280;37112;45.892;-123.962;2023-08-06T08:28:20;102143.91;;;18.14;92.63
51067;BME280;37112;45.892;-123.962;2023-08-06T08:30:34;102144.96;;;18.17;92.73
51067;BME280;37112;45.892;-123.962;2023-08-06T08:32:48;102144.59;;;18.19;92.59
51067;BME280;37112;45.892;-123.962;2023-08-06T08:35:01;102140.89;;;18.21;92.61
51067;BME280;37112;45.892;-123.962;2023-08-06T08:37:16;102141.34;;;18.22;92.51
51067;BME280;37112;45.892;-123.962;2023-08-06T08:39:30;102137.64;;;18.23;92.51
51067;BME280;37112;45.892;-123.962;2023-08-06T08:41:44;102135.84;;;18.23;92.62
51067;BME280;37112;45.892;-123.962;2023-08-06T08:43:58;102130.35;;;18.25;92.69
51067;BME280;37112;45.892;-123.962;2023-08-06T08:46:12;102129.17;;;18.26;92.69
51067;BME280;37112;45.892;-123.962;2023-08-06T08:48:27;102130.64;;;18.28;92.71
51067;BME280;37112;45.892;-123.962;2023-08-06T08:50:41;102137.25;;;18.28;92.78
51067;BME280;37112;45.892;-123.962;2023-08-06T08:52:55;102131.44;;;18.29;92.87
51067;BME280;37112;45.892;-123.962;2023-08-06T08:55:09;102130.83;;;18.27;92.63
51067;BME280;37112;45.892;-123.962;2023-08-06T08:57:23;102134.17;;;18.24;92.16
51067;BME280;37112;45.892;-123.962;2023-08-06T08:59:37;102134.11;;;18.20;91.93
51067;BME280;37112;45.892;-123.962;2023-08-06T09:01:51;102134.45;;;18.18;91.94
51067;BME280;37112;45.892;-123.962;2023-08-06T09:04:05;102136.04;;;18.18;92.04
51067;BME280;37112;45.892;-123.962;2023-08-06T09:06:19;102136.97;;;18.20;92.34
51067;BME280;37112;45.892;-123.962;2023-08-06T09:08:36;102135.85;;;18.21;92.37
51067;BME280;37112;45.892;-123.962;2023-08-06T09:10:51;102134.43;;;18.16;91.51
51067;BME280;37112;45.892;-123.962;2023-08-06T09:13:05;102132.27;;;18.09;91.14
51067;BME280;37112;45.892;-123.962;2023-08-06T09:15:19;102134.40;;;18.04;91.14
51067;BME280;37112;45.892;-123.962;2023-08-06T09:17:33;102137.73;;;18.01;91.23
51067;BME280;37112;45.892;-123.962;2023-08-06T09:19:48;102143.13;;;17.96;90.97
51067;BME280;37112;45.892;-123.962;2023-08-06T09:22:01;102144.93;;;17.94;91.21
51067;BME280;37112;45.892;-123.962;2023-08-06T09:24:15;102147.88;;;17.93;91.38
51067;BME280;37112;45.892;-123.962;2023-08-06T09:26:35;102150.58;;;17.93;91.36
51067;BME280;37112;45.892;-123.962;2023-08-06T09:28:49;102151.31;;;17.88;90.79
51067;BME280;37112;45.892;-123.962;2023-08-06T09:31:02;102147.98;;;17.85;90.94
51067;BME280;37112;45.892;-123.962;2023-08-06T09:33:20;102144.52;;;17.85;91.61
51067;BME280;37112;45.892;-123.962;2023-08-06T09:35:35;102151.20;;;17.87;91.76
51067;BME280;37112;45.892;-123.962;2023-08-06T09:37:48;102150.30;;;17.85;91.80
51067;BME280;37112;45.892;-123.962;2023-08-06T09:40:01;102154.19;;;17.86;92.05
51067;BME280;37112;45.892;-123.962;2023-08-06T09:42:17;102154.43;;;17.87;92.28
51067;BME280;37112;45.892;-123.962;2023-08-06T09:44:31;102155.34;;;17.89;92.44
51067;BME280;37112;45.892;-123.962;2023-08-06T09:46:45;102164.39;;;17.91;92.69
51067;BME280;37112;45.892;-123.962;2023-08-06T09:48:59;102166.94;;;17.93;92.78
51067;BME280;37112;45.892;-123.962;2023-08-06T09:51:15;102164.59;;;17.93;92.95
51067;BME280;37112;45.892;-123.962;2023-08-06T09:53:29;102163.67;;;17.93;92.92
51067;BME280;37112;45.892;-123.962;2023-08-06T09:55:44;102166.40;;;17.93;93.15
51067;BME280;37112;45.892;-123.962;2023-08-06T09:57:58;102159.86;;;17.94;93.29
51067;BME280;37112;45.892;-123.962;2023-08-06T10:00:12;102160.67;;;17.95;93.36
51067;BME280;37112;45.892;-123.962;2023-08-06T10:02:28;102162.16;;;17.96;93.45
51067;BME280;37112;45.892;-123.962;2023-08-06T10:04:43;102162.27;;;17.98;93.49
51067;BME280;37112;45.892;-123.962;2023-08-06T10:07:03;102165.45;;;18.00;93.59
51067;BME280;37112;45.892;-123.962;2023-08-06T10:09:18;102163.86;;;18.02;93.53
51067;BME280;37112;45.892;-123.962;2023-08-06T10:11:33;102164.59;;;18.04;93.73
51067;BME280;37112;45.892;-123.962;2023-08-06T10:13:47;102162.73;;;18.05;93.48
51067;BME280;37112;45.892;-123.962;2023-08-06T10:16:02;102167.74;;;18.06;93.79
51067;BME280;37112;45.892;-123.962;2023-08-06T10:18:16;102166.54;;;18.07;93.96
51067;BME280;37112;45.892;-123.962;2023-08-06T10:20:35;102167.37;;;18.08;93.95
51067;BME280;37112;45.892;-123.962;2023-08-06T10:23:02;102164.95;;;18.07;93.89
51067;BME280;37112;45.892;-123.962;2023-08-06T10:25:19;102165.66;;;18.07;94.04
51067;BME280;37112;45.892;-123.962;2023-08-06T10:27:35;102162.17;;;18.06;93.86
51067;BME280;37112;45.892;-123.962;2023-08-06T10:29:48;102163.23;;;18.04;93.83
51067;BME280;37112;45.892;-123.962;2023-08-06T10:32:05;102161.29;;;18.01;93.74
51067;BME280;37112;45.892;-123.962;2023-08-06T10:34:19;102163.64;;;17.98;93.75
51067;BME280;37112;45.892;-123.962;2023-08-06T10:36:33;102162.42;;;17.98;94.04
51067;BME280;37112;45.892;-123.962;2023-08-06T10:38:51;102158.52;;;17.97;94.09
51067;BME280;37112;45.892;-123.962;2023-08-06T10:41:06;102159.98;;;17.97;94.31
51067;BME280;37112;45.892;-123.962;2023-08-06T10:43:29;102159.52;;;17.96;94.42
51067;BME280;37112;45.892;-123.962;2023-08-06T10:45:52;102161.30;;;17.96;94.48
51067;BME280;37112;45.892;-123.962;2023-08-06T10:48:06;102164.48;;;17.96;94.76
51067;BME280;37112;45.892;-123.962;2023-08-06T10:50:20;102163.72;;;17.97;94.89
51067;BME280;37112;45.892;-123.962;2023-08-06T10:52:33;102165.91;;;17.97;94.81
51067;BME280;37112;45.892;-123.962;2023-08-06T10:54:47;102162.14;;;17.94;94.61
51067;BME280;37112;45.892;-123.962;2023-08-06T10:57:01;102162.45;;;17.93;94.68
51067;BME280;37112;45.892;-123.962;2023-08-06T10:59:17;102159.66;;;17.92;94.71
51067;BME280;37112;45.892;-123.962;2023-08-06T11:01:35;102160.10;;;17.91;94.77
51067;BME280;37112;45.892;-123.962;2023-08-06T11:03:50;102162.65;;;17.90;94.93
51067;BME280;37112;45.892;-123.962;2023-08-06T11:06:04;102166.45;;;17.87;94.81
51067;BME280;37112;45.892;-123.962;2023-08-06T11:08:25;102166.74;;;17.81;94.64
51067;BME280;37112;45.892;-123.962;2023-08-06T11:10:40;102168.85;;;17.77;94.68
51067;BME280;37112;45.892;-123.962;2023-08-06T11:13:10;102163.55;;;17.76;95.18
51067;BME280;37112;45.892;-123.962;2023-08-06T11:15:24;102166.42;;;17.76;95.36
51067;BME280;37112;45.892;-123.962;2023-08-06T11:17:39;102165.58;;;17.77;95.44